Time;durP1;ratioP1;P1;durP2;ratioP2;P2;SDS_P1;SDS_P2;PMS_P1;PMS_P2;Temp;Humidity;BMP_temperature;BMP_pressure;BME280_temperature;BME280_humidity;BME280_pressure;Samples;Min_cycle;Max_cycle;Signal;HPM_P1;HPM_P2
2023/12/04 00:03:55;;;;;;;2.97;0.80;;;;;;;12.88;87.31;100180.00;10224767;28;97181;-79
2023/12/04 00:09:41;;;;;;;2.33;0.80;;;;;;;12.88;87.27;100174.72;10250664;28;97572;-79
2023/12/04 00:14:51;;;;;;;2.58;0.60;;;;;;;12.87;87.38;100165.06;10131313;28;96829;-79
2023/12/04 00:20:23;;;;;;;2.55;0.77;;;;;;;12.85;86.74;100156.34;10131498;28;96786;-79
2023/12/04 00:25:51;;;;;;;;;;;;;;;;;;;;;
2023/12/04 00:31:23;;;;;;;2.47;0.90;;;;;;;12.64;87.64;100147.72;10415284;28;97268;-79
2023/12/04 00:36:37;;;;;;;3.63;0.70;;;;;;;12.54;87.61;100141.16;10395808;28;97595;-79
2023/12/04 00:41:59;;;;;;;;;;;;;;;;;;;;;
2023/12/04 00:52:34;;;;;;;2.22;0.70;;;;;;;12.40;88.26;100135.69;10416150;28;97305;-79
2023/12/04 00:57:58;;;;;;;1.77;0.80;;;;;;;12.41;87.79;100130.34;10408286;27;96797;-79
2023/12/04 01:03:06;;;;;;;0.77;0.50;;;;;;;12.33;89.91;100129.88;10386108;28;96988;-79
2023/12/04 01:08:23;;;;;;;1.33;0.70;;;;;;;12.40;89.67;100133.06;10409064;28;96587;-79
2023/12/04 01:13:55;;;;;;;;;;;;;;;;;;;;;
2023/12/04 01:19:12;;;;;;;;;;;;;;;;;;;;;
2023/12/04 01:24:32;;;;;;;3.47;0.85;;;;;;;12.47;90.91;100158.22;10377932;28;96655;-79
2023/12/04 01:29:56;;;;;;;6.60;1.00;;;;;;;12.57;90.02;100171.84;10377408;28;96679;-79
2023/12/04 01:35:13;;;;;;;4.75;0.65;;;;;;;12.62;92.38;100167.19;10384601;27;96780;-79
2023/12/04 01:40:57;;;;;;;4.13;0.68;;;;;;;12.60;91.28;100167.28;10420151;28;97453;-79
2023/12/04 01:46:11;;;;;;;2.60;0.75;;;;;;;12.55;91.33;100177.16;10418492;28;96774;-79
2023/12/04 01:51:57;;;;;;;3.38;0.77;;;;;;;12.57;90.30;100166.56;10418366;28;96762;-79
2023/12/04 01:57:07;;;;;;;1.80;0.60;;;;;;;12.48;91.84;100160.78;10397260;28;96585;-79
2023/12/04 02:02:35;;;;;;;3.38;0.82;;;;;;;12.48;91.82;100170.47;10376911;28;96872;-79
2023/12/04 02:07:58;;;;;;;3.67;0.73;;;;;;;12.42;92.39;100157.59;10370381;28;96668;-79
2023/12/04 02:13:14;;;;;;;1.33;0.63;;;;;;;12.43;91.67;100159.28;10416366;28;96766;-79
2023/12/04 02:18:26;;;;;;;2.53;0.90;;;;;;;12.40;92.24;100167.38;10415905;28;97250;-79
2023/12/04 02:23:55;;;;;;;3.65;1.10;;;;;;;12.38;92.68;100195.59;10375946;28;96720;-79
2023/12/04 02:29:35;;;;;;;3.83;0.85;;;;;;;12.45;93.11;100183.84;10409277;28;96798;-79
2023/12/04 02:34:44;;;;;;;2.67;1.02;;;;;;;12.64;93.00;100197.88;10417597;28;96691;-79
2023/12/04 02:39:56;;;;;;;3.95;1.10;;;;;;;12.61;94.10;100205.06;10417034;28;96785;-81
2023/12/04 02:45:03;;;;;;;5.45;0.80;;;;;;;12.83;94.22;100211.03;10417449;28;97002;-79
2023/12/04 02:50:22;;;;;;;;;;;;;;;;;;;;;
2023/12/04 03:01:40;;;;;;;;;;;;;;;;;;;;;
2023/12/04 03:06:45;;;;;;;4.70;0.90;;;;;;;12.88;93.78;100236.28;10384690;22;97251;-79
2023/12/04 03:12:15;;;;;;;6.50;1.13;;;;;;;12.89;93.58;100251.22;10348125;28;96643;-79
2023/12/04 03:17:40;;;;;;;3.17;0.80;;;;;;;12.96;94.55;100244.69;10375571;28;97832;-82
2023/12/04 03:23:17;;;;;;;7.18;1.08;;;;;;;12.99;94.10;100248.97;10290966;28;97114;-79
2023/12/04 03:28:43;;;;;;;5.30;1.10;;;;;;;12.96;94.26;100250.00;10341037;28;96863;-80
2023/12/04 03:34:33;;;;;;;6.13;1.13;;;;;;;12.99;94.49;100246.31;10347472;28;96833;-80
2023/12/04 03:39:59;;;;;;;5.85;0.73;;;;;;;12.97;94.38;100241.13;10292650;28;96967;-79
2023/12/04 03:45:16;;;;;;;5.07;1.02;;;;;;;12.96;94.53;100246.47;10292768;28;97288;-79
2023/12/04 03:50:35;;;;;;;6.80;1.50;;;;;;;12.96;94.32;100247.34;10342812;28;97559;-79
2023/12/04 03:55:42;;;;;;;3.28;1.23;;;;;;;12.95;94.71;100250.91;10380853;28;97033;-82
2023/12/04 04:00:54;;;;;;;6.07;1.35;;;;;;;12.88;96.30;100270.63;10363404;28;97643;-82
2023/12/04 04:06:09;;;;;;;3.70;1.10;;;;;;;12.94;96.19;100264.19;10338403;28;96791;-79
2023/12/04 04:11:41;;;;;;;;;;;;;;;;;;;;;
2023/12/04 04:16:57;;;;;;;3.92;1.20;;;;;;;12.92;95.84;100285.41;10380027;28;96680;-79
2023/12/04 04:22:03;;;;;;;3.85;1.13;;;;;;;12.84;95.77;100298.13;10380460;28;97345;-79
2023/12/04 04:27:20;;;;;;;6.68;1.35;;;;;;;12.81;96.21;100292.13;10404185;28;96753;-79
2023/12/04 04:32:34;;;;;;;5.40;0.95;;;;;;;12.79;96.02;100310.66;10420862;28;96796;-79
2023/12/04 04:37:52;;;;;;;3.03;0.98;;;;;;;12.79;96.17;100313.31;10419466;27;96773;-79
2023/12/04 04:43:11;;;;;;;1.83;0.82;;;;;;;12.75;95.82;100308.25;10419614;28;96782;-79
2023/12/04 04:48:22;;;;;;;7.60;1.00;;;;;;;12.70;95.62;100308.47;10420584;28;96544;-79
2023/12/04 04:53:51;;;;;;;;;;;;;;;;;;;;;
2023/12/04 04:58:58;;;;;;;3.25;0.77;;;;;;;12.77;95.36;100317.81;10403355;27;96721;-79
2023/12/04 05:04:48;;;;;;;;;;;;;;;12.82;95.08;100331.66;10378595;28;97064;-79
2023/12/04 05:10:15;;;;;;;7.53;0.88;;;;;;;12.79;95.02;100328.31;10221552;28;97033;-82
2023/12/04 05:15:23;;;;;;;6.55;0.75;;;;;;;12.80;94.85;100317.66;10379378;28;96752;-79
2023/12/04 05:20:30;;;;;;;3.60;0.90;;;;;;;12.78;94.92;100324.81;10377910;28;97534;-79
2023/12/04 05:25:37;;;;;;;4.55;0.77;;;;;;;12.75;94.90;100326.72;10378181;28;97251;-79
2023/12/04 05:30:50;;;;;;;3.85;0.77;;;;;;;12.75;94.84;100343.44;10376338;28;96730;-79
2023/12/04 05:35:54;;;;;;;5.38;0.57;;;;;;;12.71;95.16;100343.63;10377848;28;96925;-79
2023/12/04 05:40:59;;;;;;;2.13;0.50;;;;;;;12.73;94.95;100358.50;10377725;28;96952;-82
2023/12/04 05:46:09;;;;;;;2.08;0.70;;;;;;;12.66;95.80;100367.63;10376918;28;97242;-81
2023/12/04 05:51:14;;;;;;;3.55;0.57;;;;;;;12.60;95.98;100369.66;10377275;28;96679;-82
2023/12/04 05:56:28;;;;;;;3.85;0.75;;;;;;;12.57;96.36;100368.00;10376025;28;96699;-79
2023/12/04 06:01:31;;;;;;;1.88;0.40;;;;;;;12.56;96.05;100376.88;10353960;28;96738;-79
2023/12/04 06:06:50;;;;;;;3.22;0.68;;;;;;;12.54;95.59;100374.31;10365387;28;96711;-79
2023/12/04 06:12:20;;;;;;;3.53;0.60;;;;;;;12.52;95.62;100386.72;10376150;28;96716;-79
2023/12/04 06:17:28;;;;;;;5.43;0.77;;;;;;;12.57;95.27;100383.00;10376317;28;97170;-79
2023/12/04 06:22:35;;;;;;;2.53;0.65;;;;;;;12.57;95.31;100389.13;10375117;28;97078;-79
2023/12/04 06:27:55;;;;;;;;;;;;;;;;;;;;;
2023/12/04 06:33:04;;;;;;;2.43;0.80;;;;;;;12.47;95.22;100401.91;10375908;28;96751;-79
2023/12/04 06:38:20;;;;;;;2.55;0.63;;;;;;;12.39;95.50;100411.91;10375388;28;97899;-79
2023/12/04 06:43:27;;;;;;;2.73;0.77;;;;;;;12.38;95.39;100412.88;10376471;28;96914;-79
2023/12/04 06:48:40;;;;;;;3.10;0.63;;;;;;;12.31;95.33;100424.59;10375655;28;96668;-79
2023/12/04 06:53:51;;;;;;;3.17;0.70;;;;;;;12.24;95.45;100427.56;10375456;28;96748;-79
2023/12/04 06:59:02;;;;;;;3.78;0.70;;;;;;;12.18;95.50;100436.63;10383810;28;96776;-79
2023/12/04 07:04:20;;;;;;;;;;;;;;;;;;;;;
2023/12/04 07:09:28;;;;;;;2.22;0.80;;;;;;;12.09;95.61;100450.22;10381802;28;96753;-79
2023/12/04 07:14:38;;;;;;;4.22;0.85;;;;;;;12.06;95.57;100455.63;10381571;28;97323;-79
2023/12/04 07:19:48;;;;;;;1.95;0.60;;;;;;;12.00;95.46;100457.63;10382056;28;96746;-79
2023/12/04 07:24:56;;;;;;;1.52;0.70;;;;;;;11.98;95.28;100457.72;10381832;28;97333;-79
2023/12/04 07:30:07;;;;;;;4.80;0.65;;;;;;;12.01;95.13;100472.56;10381393;28;96637;-79
2023/12/04 07:35:12;;;;;;;3.90;0.80;;;;;;;12.01;95.10;100475.19;10381478;28;96644;-79
2023/12/04 07:40:27;;;;;;;;;;;;;;;;;;;;;
2023/12/04 07:45:48;;;;;;;1.90;0.50;;;;;;;12.05;95.11;100484.69;10379383;28;97626;-79
2023/12/04 07:50:54;;;;;;;4.22;0.80;;;;;;;12.06;95.01;100489.91;10381872;28;97385;-79
2023/12/04 07:56:14;;;;;;;;;;;;;;;;;;;;;
2023/12/04 08:01:24;;;;;;;1.58;0.70;;;;;;;12.13;94.79;100501.91;10375585;28;97070;-79
2023/12/04 08:06:33;;;;;;;1.00;0.60;;;;;;;12.09;94.87;100507.38;10379463;28;96854;-79
2023/12/04 08:11:50;;;;;;;;;;;;;;;;;;;;;
2023/12/04 08:17:20;;;;;;;4.20;1.10;;;;;;;12.03;95.33;100518.19;10253588;28;97051;-79
2023/12/04 08:22:26;;;;;;;6.72;1.35;;;;;;;12.09;95.15;100521.44;10380743;28;97067;-79
2023/12/04 08:27:33;;;;;;;3.80;0.68;;;;;;;12.15;94.77;100529.06;10379662;28;97404;-79
2023/12/04 08:32:38;;;;;;;2.25;0.93;;;;;;;12.12;95.03;100537.13;10379310;28;96814;-79
2023/12/04 08:37:42;;;;;;;1.88;0.77;;;;;;;12.13;94.55;100544.09;10379425;28;97031;-79
2023/12/04 08:42:46;;;;;;;3.78;0.70;;;;;;;12.11;94.69;100555.66;10380598;28;97052;-79
2023/12/04 08:47:50;;;;;;;2.67;0.73;;;;;;;12.12;94.69;100560.00;10378757;28;97184;-79
2023/12/04 08:52:56;;;;;;;;;;;;;;;12.18;94.71;100573.81;10378931;28;96792;-79
2023/12/04 08:58:00;;;;;;;1.33;0.50;;;;;;;12.21;94.73;100586.88;10378014;28;97297;-79
2023/12/04 09:03:16;;;;;;;2.20;0.70;;;;;;;12.26;94.66;100586.66;10378053;28;96753;-79
2023/12/04 09:08:28;;;;;;;4.53;1.00;;;;;;;12.34;94.24;100593.34;10418967;28;97382;-79
2023/12/04 09:13:43;;;;;;;1.70;0.60;;;;;;;12.55;94.25;100597.75;10415478;28;97220;-79
2023/12/04 09:18:49;;;;;;;5.57;1.23;;;;;;;12.67;93.93;100601.66;10377303;28;97233;-79
2023/12/04 09:23:53;;;;;;;;;;;;;;;12.82;94.15;100606.31;10378175;28;96636;-79
2023/12/04 09:28:57;;;;;;;2.83;0.80;;;;;;;12.90;93.74;100605.97;10377716;28;96819;-79
2023/12/04 09:34:03;;;;;;;3.23;0.93;;;;;;;13.00;93.36;100617.88;10378920;28;97005;-79
2023/12/04 09:39:07;;;;;;;7.57;1.00;;;;;;;13.09;93.21;100622.72;10377332;28;96984;-79
2023/12/04 09:44:11;;;;;;;5.35;1.20;;;;;;;13.21;92.93;100630.97;10377096;28;96776;-79
2023/12/04 09:49:20;;;;;;;5.82;1.33;;;;;;;13.37;92.81;100632.03;10392405;28;96796;-79
2023/12/04 09:54:26;;;;;;;7.28;1.15;;;;;;;13.57;92.30;100637.25;10418692;28;96738;-79
2023/12/04 09:59:31;;;;;;;4.78;1.30;;;;;;;13.66;92.04;100650.06;10412115;28;96637;-79
2023/12/04 10:04:37;;;;;;;4.80;1.85;;;;;;;13.81;92.10;100653.78;10376624;28;97338;-80
2023/12/04 10:09:40;;;;;;;7.47;2.55;;;;;;;13.81;91.53;100660.88;10376549;28;96640;-79
2023/12/04 10:15:04;;;;;;;9.35;2.92;;;;;;;13.99;91.23;100660.00;10376016;28;96816;-79
2023/12/04 10:20:12;;;;;;;10.93;3.72;;;;;;;14.11;90.86;100673.53;10376231;28;97288;-79
2023/12/04 10:25:19;;;;;;;15.25;4.25;;;;;;;14.23;90.88;100672.13;10377272;28;96700;-79
2023/12/04 10:30:34;;;;;;;12.65;4.53;;;;;;;14.01;90.41;100674.88;10379684;28;96904;-79
2023/12/04 10:35:43;;;;;;;10.45;3.53;;;;;;;13.95;90.33;100672.50;10383022;28;96643;-79
2023/12/04 10:40:48;;;;;;;8.20;3.75;;;;;;;13.93;90.03;100674.38;10382499;28;96773;-79
2023/12/04 10:45:53;;;;;;;9.20;3.10;;;;;;;13.99;89.68;100673.22;10382426;28;96633;-80
2023/12/04 10:51:02;;;;;;;7.72;2.80;;;;;;;14.09;89.58;100674.56;10382375;28;96671;-79
2023/12/04 10:56:11;;;;;;;7.70;2.40;;;;;;;14.04;87.78;100671.28;10389966;28;96881;-79
2023/12/04 11:01:23;;;;;;;7.70;2.42;;;;;;;14.10;85.68;100681.56;10402230;28;96866;-79
2023/12/04 11:06:31;;;;;;;11.18;2.08;;;;;;;14.17;84.82;100677.69;10381660;28;97149;-79
2023/12/04 11:11:42;;;;;;;10.05;2.05;;;;;;;14.22;84.86;100671.25;10381679;28;97455;-79
2023/12/04 11:16:50;;;;;;;4.32;1.60;;;;;;;14.57;83.12;100664.25;10383266;28;96887;-79
2023/12/04 11:21:59;;;;;;;5.13;1.90;;;;;;;14.41;83.49;100655.34;10381966;28;96553;-79
2023/12/04 11:27:04;;;;;;;11.07;2.15;;;;;;;14.24;82.92;100648.22;10381824;28;97111;-79
2023/12/04 11:32:14;;;;;;;6.13;1.95;;;;;;;14.23;83.37;100648.31;10381013;28;96732;-79
2023/12/04 11:37:25;;;;;;;7.40;1.52;;;;;;;14.01;81.69;100632.53;10380866;28;96772;-79
2023/12/04 11:42:35;;;;;;;6.20;1.90;;;;;;;13.89;82.58;100629.59;10380419;28;97436;-79
2023/12/04 11:47:59;;;;;;;5.82;1.70;;;;;;;14.08;80.13;100620.78;10381482;28;97087;-79
2023/12/04 11:53:05;;;;;;;6.60;1.80;;;;;;;14.26;79.16;100611.94;10380510;28;97228;-79
2023/12/04 11:58:33;;;;;;;5.75;1.27;;;;;;;14.52;78.99;100602.72;10376250;28;98056;-79
2023/12/04 12:03:37;;;;;;;7.47;2.00;;;;;;;14.79;78.94;100601.31;10383842;28;97276;-79
2023/12/04 12:08:42;;;;;;;8.17;1.63;;;;;;;15.21;77.18;100606.16;10420298;28;97582;-79
2023/12/04 12:13:47;;;;;;;;;;;;;;;15.06;75.63;100599.03;10422600;27;96846;-79
2023/12/04 12:18:50;;;;;;;8.37;1.90;;;;;;;14.65;76.95;100595.84;10421875;27;97200;-79
2023/12/04 12:23:56;;;;;;;5.97;1.52;;;;;;;14.43;77.69;100605.81;10419402;28;96648;-79
2023/12/04 12:28:59;;;;;;;6.50;1.50;;;;;;;14.52;76.60;100600.06;10421186;27;97271;-79
2023/12/04 12:34:04;;;;;;;7.68;1.52;;;;;;;14.92;77.25;100593.59;10420763;28;97167;-79
2023/12/04 12:39:11;;;;;;;7.80;1.65;;;;;;;15.33;75.97;100586.97;10404638;28;97262;-79
2023/12/04 12:44:16;;;;;;;5.63;2.05;;;;;;;15.16;75.95;100598.47;10378747;28;97120;-79
2023/12/04 12:49:20;;;;;;;6.33;2.13;;;;;;;14.84;73.57;100599.28;10378632;28;96731;-79
2023/12/04 12:54:40;;;;;;;5.55;1.52;;;;;;;14.60;73.26;100601.38;10381141;28;96878;-79
2023/12/04 12:59:45;;;;;;;6.60;1.48;;;;;;;14.58;75.80;100607.69;10412528;28;96840;-79
2023/12/04 13:04:48;;;;;;;6.20;1.50;;;;;;;14.45;75.17;100609.25;10377898;28;97373;-79
2023/12/04 13:09:55;;;;;;;4.22;0.93;;;;;;;14.34;76.26;100603.59;10378154;28;96648;-79
2023/12/04 13:15:01;;;;;;;4.88;1.40;;;;;;;14.20;74.94;100609.59;10377308;28;96743;-79
2023/12/04 13:20:08;;;;;;;3.15;1.13;;;;;;;15.36;72.47;100614.19;10377493;28;96870;-79
2023/12/04 13:25:17;;;;;;;3.40;0.80;;;;;;;17.10;68.52;100609.50;10377709;28;96745;-79
2023/12/04 13:30:22;;;;;;;2.08;0.55;;;;;;;16.30;69.94;100620.41;10378002;28;96752;-79
2023/12/04 13:35:26;;;;;;;4.57;1.15;;;;;;;15.43;70.36;100618.22;10377311;28;96680;-79
2023/12/04 13:40:32;;;;;;;3.67;0.83;;;;;;;14.91;69.66;100623.66;10376842;28;97220;-79
2023/12/04 13:45:35;;;;;;;4.57;0.80;;;;;;;14.72;70.86;100615.78;10379859;28;97324;-79
2023/12/04 13:50:41;;;;;;;3.72;0.98;;;;;;;14.57;70.04;100629.81;10419177;28;96698;-79
2023/12/04 13:56:10;;;;;;;2.90;0.80;;;;;;;14.68;71.04;100624.81;10418277;27;97197;-79
2023/12/04 14:01:21;;;;;;;4.45;1.10;;;;;;;14.89;69.65;100628.19;10397812;28;96810;-79
2023/12/04 14:06:25;;;;;;;3.20;1.30;;;;;;;15.27;69.16;100619.97;10375150;28;96717;-79
2023/12/04 14:11:31;;;;;;;14.10;4.05;;;;;;;15.52;69.03;100620.41;10376302;28;98073;-79
2023/12/04 14:16:37;;;;;;;9.85;4.32;;;;;;;15.50;69.16;100613.44;10376706;28;96823;-79
2023/12/04 14:21:40;;;;;;;11.38;4.85;;;;;;;15.94;67.50;100607.41;10376476;28;96828;-79
2023/12/04 14:26:45;;;;;;;18.65;6.90;;;;;;;16.05;66.51;100593.53;10375578;28;96848;-79
2023/12/04 14:31:51;;;;;;;21.38;8.57;;;;;;;15.89;65.38;100593.53;10375366;28;96887;-79
2023/12/04 14:36:57;;;;;;;17.55;5.90;;;;;;;15.37;67.13;100615.06;10381183;28;97101;-79
2023/12/04 14:42:04;;;;;;;7.53;2.35;;;;;;;14.97;65.00;100610.97;10414263;28;96615;-79
2023/12/04 14:47:11;;;;;;;4.32;1.17;;;;;;;14.59;68.66;100644.69;10375441;28;97445;-79
2023/12/04 14:52:18;;;;;;;3.70;1.25;;;;;;;14.30;71.31;100670.88;10375375;28;96671;-79
2023/12/04 15:03:20;;;;;;;2.80;1.08;;;;;;;14.27;71.85;100653.34;10380197;28;96847;-79
2023/12/04 15:14:04;;;;;;;7.97;2.15;;;;;;;16.68;68.21;100645.66;10409726;28;96878;-79
2023/12/04 15:24:26;;;;;;;3.55;1.10;;;;;;;17.93;66.09;100659.22;10421116;28;97388;-79
2023/12/04 15:29:32;;;;;;;5.23;1.20;;;;;;;17.50;65.55;100678.81;10422355;28;97464;-79
2023/12/04 15:34:57;;;;;;;3.83;1.67;;;;;;;16.42;68.38;100678.19;10396242;22;99996;-79
2023/12/04 15:40:06;;;;;;;4.80;1.75;;;;;;;15.67;69.76;100661.13;10326951;28;97334;-80
2023/12/04 15:45:11;;;;;;;5.38;2.22;;;;;;;15.12;70.77;100671.13;10339834;28;97498;-79
2023/12/04 15:50:17;;;;;;;8.13;3.05;;;;;;;14.69;72.25;100682.19;10338601;28;96682;-79
2023/12/04 15:55:23;;;;;;;19.13;8.50;;;;;;;14.28;72.98;100678.88;10339137;28;96852;-79
2023/12/04 16:00:29;;;;;;;12.70;6.18;;;;;;;14.04;73.29;100673.94;10339258;28;97636;-79
2023/12/04 16:05:35;;;;;;;8.23;3.20;;;;;;;13.91;74.41;100678.03;10338657;28;97645;-79
2023/12/04 16:10:39;;;;;;;5.80;2.20;;;;;;;13.72;74.96;100685.94;10338540;28;96745;-79
2023/12/04 16:15:48;;;;;;;4.40;1.80;;;;;;;13.74;75.04;100704.38;10338989;28;96861;-79
2023/12/04 16:20:52;;;;;;;3.70;1.27;;;;;;;13.62;75.55;100698.72;10338570;28;96709;-79
2023/12/04 16:25:58;;;;;;;5.17;1.73;;;;;;;13.59;75.76;100696.22;10339018;28;97966;-79
2023/12/04 16:31:06;;;;;;;2.67;1.50;;;;;;;13.55;75.27;100693.78;10337984;28;96776;-79
2023/12/04 16:36:12;;;;;;;3.22;1.60;;;;;;;13.49;75.78;100696.69;10337782;28;96984;-79
2023/12/04 16:41:16;;;;;;;5.70;2.60;;;;;;;13.36;76.46;100704.28;10336775;28;96874;-79
2023/12/04 16:46:22;;;;;;;6.30;2.80;;;;;;;13.21;76.97;100712.03;10337681;28;97289;-79
2023/12/04 16:51:27;;;;;;;4.78;2.38;;;;;;;13.06;77.84;100734.69;10337576;28;96699;-79
2023/12/04 16:56:33;;;;;;;7.05;2.55;;;;;;;13.05;77.69;100732.97;10337153;28;97055;-79
2023/12/04 17:01:39;;;;;;;8.15;3.70;;;;;;;13.00;77.95;100742.03;10337077;28;97377;-79
2023/12/04 17:06:43;;;;;;;8.10;3.67;;;;;;;12.87;78.44;100736.38;10336646;28;96655;-79
2023/12/04 17:11:47;;;;;;;11.00;4.38;;;;;;;12.84;78.70;100744.44;10336729;28;96629;-79
2023/12/04 17:16:52;;;;;;;9.07;4.40;;;;;;;12.71;79.17;100745.84;10337644;28;96698;-79
2023/12/04 17:21:57;;;;;;;;;;;;;;;12.70;79.84;100748.56;10336943;28;96645;-79
2023/12/04 17:27:00;;;;;;;27.03;10.13;;;;;;;12.67;79.30;100746.88;10336730;28;96872;-79
2023/12/04 17:32:06;;;;;;;23.88;11.02;;;;;;;12.64;79.59;100754.94;10334947;28;97140;-79
2023/12/04 17:37:09;;;;;;;24.75;12.25;;;;;;;12.60;79.84;100760.38;10335230;28;97229;-79
2023/12/04 17:42:15;;;;;;;30.67;14.23;;;;;;;12.58;79.91;100755.16;10334662;28;96873;-79
2023/12/04 17:47:21;;;;;;;32.03;15.05;;;;;;;12.42;80.17;100760.19;10334970;28;97319;-79
2023/12/04 17:52:24;;;;;;;38.97;18.20;;;;;;;12.31;80.23;100749.19;10334811;28;97715;-79
2023/12/04 17:57:28;;;;;;;35.45;15.02;;;;;;;12.20;80.51;100764.53;10335649;28;97303;-79
2023/12/04 18:02:32;;;;;;;25.45;13.45;;;;;;;12.12;81.11;100777.19;10334767;28;97057;-79
2023/12/04 18:07:37;;;;;;;29.50;12.82;;;;;;;12.08;81.27;100778.19;10362614;28;97006;-79
2023/12/04 18:12:40;;;;;;;17.70;10.43;;;;;;;12.13;81.08;100783.31;10375406;28;96713;-79
2023/12/04 18:17:45;;;;;;;17.27;8.35;;;;;;;12.12;82.06;100794.78;10370290;28;97044;-79
2023/12/04 18:22:49;;;;;;;16.48;7.88;;;;;;;12.08;82.68;100788.75;10338607;28;96672;-79
2023/12/04 18:27:58;;;;;;;20.00;9.80;;;;;;;12.01;82.85;100795.16;10360168;28;96826;-79
2023/12/04 18:33:04;;;;;;;19.98;10.75;;;;;;;11.95;83.11;100790.13;10334337;28;97154;-79
2023/12/04 18:38:14;;;;;;;14.02;8.35;;;;;;;11.96;82.54;100798.91;10333075;28;96608;-79
2023/12/04 18:43:18;;;;;;;23.80;11.43;;;;;;;11.86;83.05;100793.09;10334590;28;97030;-79
2023/12/04 18:48:31;;;;;;;18.70;8.73;;;;;;;11.75;82.87;100803.19;10333943;28;96733;-79
2023/12/04 18:53:35;;;;;;;21.98;8.73;;;;;;;11.67;82.74;100797.31;10340553;28;97595;-79
2023/12/04 18:58:39;;;;;;;14.57;7.95;;;;;;;11.62;83.00;100806.28;10342004;28;96592;-79
2023/12/04 19:03:44;;;;;;;12.57;6.53;;;;;;;11.60;83.12;100837.13;10355647;28;96689;-79
2023/12/04 19:08:48;;;;;;;;;;;;;;;11.47;83.92;100841.09;10376721;28;97294;-79
2023/12/04 19:13:51;;;;;;;13.93;6.38;;;;;;;11.49;83.39;100853.31;10339715;28;97416;-79
2023/12/04 19:18:56;;;;;;;13.43;7.15;;;;;;;11.30;83.69;100860.13;10340182;28;96753;-79
2023/12/04 19:23:59;;;;;;;13.82;7.43;;;;;;;11.22;83.01;100855.09;10356603;28;96663;-79
2023/12/04 19:29:03;;;;;;;16.25;7.18;;;;;;;11.12;83.88;100852.78;10340192;28;97166;-79
2023/12/04 19:34:08;;;;;;;15.68;7.22;;;;;;;11.10;83.22;100862.50;10339771;28;97191;-79
2023/12/04 19:39:11;;;;;;;;;;;;;;;10.88;84.22;100870.22;10339953;28;97002;-79
2023/12/04 19:44:14;;;;;;;12.80;6.07;;;;;;;10.78;84.06;100878.44;10340016;28;97224;-79
2023/12/04 19:49:19;;;;;;;12.93;6.63;;;;;;;10.71;84.61;100883.03;10340617;28;96835;-79
2023/12/04 19:54:23;;;;;;;11.40;6.40;;;;;;;10.73;84.66;100891.72;10339555;28;97027;-79
2023/12/04 19:59:26;;;;;;;10.88;6.35;;;;;;;10.78;84.01;100892.47;10339115;28;97123;-79
2023/12/04 20:04:31;;;;;;;14.15;6.50;;;;;;;10.92;83.81;100894.69;10337225;28;97349;-79
2023/12/04 20:09:35;;;;;;;;;;;;;;;10.93;84.59;100901.66;10339570;28;96760;-79
2023/12/04 20:14:39;;;;;;;13.95;6.13;;;;;;;10.94;84.46;100900.75;10338766;28;96648;-79
2023/12/04 20:19:47;;;;;;;14.00;5.95;;;;;;;10.77;84.31;100903.00;10338656;28;96718;-79
2023/12/04 20:24:50;;;;;;;14.98;6.65;;;;;;;10.81;85.05;100923.97;10337993;28;97668;-79
2023/12/04 20:29:56;;;;;;;8.38;5.10;;;;;;;10.64;84.60;100928.88;10338252;28;96750;-79
2023/12/04 20:35:02;;;;;;;7.50;5.28;;;;;;;10.61;84.30;100936.81;10337205;28;96902;-79
2023/12/04 20:40:08;;;;;;;14.40;6.95;;;;;;;10.71;84.03;100940.94;10338832;28;96720;-79
2023/12/04 20:45:12;;;;;;;19.58;7.00;;;;;;;10.64;84.81;100941.16;10337958;28;96633;-79
2023/12/04 20:50:21;;;;;;;14.07;8.27;;;;;;;10.76;84.21;100946.94;10337611;28;96733;-79
2023/12/04 20:55:26;;;;;;;19.95;8.52;;;;;;;10.85;84.66;100953.69;10336311;28;96688;-79
2023/12/04 21:00:34;;;;;;;17.20;6.75;;;;;;;10.80;84.81;100956.44;10358358;28;96848;-79
2023/12/04 21:05:41;;;;;;;16.65;7.75;;;;;;;10.88;84.58;100961.50;10369577;28;96733;-79
2023/12/04 21:10:44;;;;;;;11.95;6.88;;;;;;;10.71;84.74;100964.63;10336806;28;97154;-79
2023/12/04 21:15:49;;;;;;;;;;;;;;;10.78;85.29;100968.81;10348056;28;97515;-79
2023/12/04 21:20:55;;;;;;;11.38;6.22;;;;;;;10.63;85.35;100966.59;10356885;28;96719;-79
2023/12/04 21:25:59;;;;;;;12.98;6.45;;;;;;;10.58;84.96;100960.59;10336440;28;96849;-79
2023/12/04 21:31:04;;;;;;;12.23;5.93;;;;;;;10.52;85.75;100963.44;10336914;28;97895;-79
2023/12/04 21:36:11;;;;;;;12.98;6.25;;;;;;;10.46;85.29;100954.81;10335958;28;97083;-79
2023/12/04 21:41:14;;;;;;;12.63;6.90;;;;;;;10.51;85.99;100955.53;10336373;28;96739;-79
2023/12/04 21:46:18;;;;;;;16.80;7.35;;;;;;;10.45;86.26;100958.38;10334455;28;96657;-79
2023/12/04 21:51:24;;;;;;;13.10;6.23;;;;;;;10.57;85.76;100955.38;10335870;28;97184;-79
2023/12/04 21:56:28;;;;;;;14.88;6.50;;;;;;;10.67;85.35;100936.66;10339838;28;97685;-79
2023/12/04 22:01:33;;;;;;;11.45;6.20;;;;;;;10.72;85.43;100933.88;10348498;28;96842;-79
2023/12/04 22:06:42;;;;;;;12.67;7.00;;;;;;;10.63;85.14;100942.91;10334812;28;96733;-79
2023/12/04 22:11:45;;;;;;;9.88;5.85;;;;;;;10.58;84.45;100930.78;10335073;28;97210;-79
2023/12/04 22:16:50;;;;;;;15.40;6.70;;;;;;;10.48;85.51;100926.69;10358522;28;96615;-79
2023/12/04 22:21:55;;;;;;;11.32;6.05;;;;;;;10.49;85.55;100934.53;10335625;28;96912;-79
2023/12/04 22:27:00;;;;;;;14.75;6.85;;;;;;;10.30;85.55;100935.13;10334209;28;96975;-79
2023/12/04 22:32:04;;;;;;;10.70;6.50;;;;;;;10.21;86.11;100934.44;10334443;28;96744;-79
2023/12/04 22:37:09;;;;;;;9.38;5.50;;;;;;;10.08;85.94;100938.34;10332831;28;96825;-79
2023/12/04 22:42:13;;;;;;;14.13;6.75;;;;;;;10.18;85.64;100938.94;10334213;28;96966;-79
2023/12/04 22:47:19;;;;;;;11.13;6.43;;;;;;;10.01;86.73;100930.63;10334058;28;97135;-79
2023/12/04 22:52:29;;;;;;;14.80;6.38;;;;;;;9.83;87.33;100929.34;10333582;28;97302;-79
2023/12/04 22:57:33;;;;;;;10.40;5.47;;;;;;;9.59;87.45;100924.72;10358298;28;98222;-79
2023/12/04 23:02:37;;;;;;;10.38;6.05;;;;;;;9.52;89.47;100917.03;10375260;28;96669;-79
2023/12/04 23:07:42;;;;;;;13.90;6.30;;;;;;;9.47;88.36;100911.88;10361859;28;96610;-79
2023/12/04 23:12:47;;;;;;;13.40;6.13;;;;;;;9.53;88.03;100909.13;10334542;28;97218;-79
2023/12/04 23:17:51;;;;;;;13.63;6.22;;;;;;;9.55;88.04;100920.47;10333368;28;97264;-79
2023/12/04 23:22:56;;;;;;;13.30;6.70;;;;;;;9.56;88.46;100921.28;10333537;28;96812;-79
2023/12/04 23:28:00;;;;;;;12.70;6.57;;;;;;;9.56;87.74;100929.19;10332245;28;97439;-79
2023/12/04 23:33:05;;;;;;;12.93;6.53;;;;;;;9.51;87.72;100923.19;10333381;28;97448;-79
2023/12/04 23:38:13;;;;;;;;;;;;;;;9.46;86.99;100931.19;10335881;28;97126;-79
2023/12/04 23:43:19;;;;;;;8.68;4.35;;;;;;;9.40;86.92;100930.47;10340241;28;97309;-79
2023/12/04 23:48:22;;;;;;;10.25;5.18;;;;;;;9.46;86.95;100932.94;10339711;28;96632;-79
2023/12/04 23:53:28;;;;;;;9.43;4.30;;;;;;;9.40;86.04;100935.72;10344279;28;96982;-79
2023/12/04 23:58:33;;;;;;;9.65;5.28;;;;;;;9.36;87.28;100950.69;10369344;28;96580;-79
